createdAt,value
2019-05-07T00:01:54.985Z,3.43
2019-05-07T00:04:23.456Z,4.00
2019-05-07T00:06:53.497Z,3.87
2019-05-07T00:09:23.597Z,4.10
2019-05-07T00:11:53.674Z,4.57
2019-05-07T00:14:25.255Z,4.30
2019-05-07T00:16:55.241Z,4.03
2019-05-07T00:19:25.135Z,3.93
2019-05-07T00:21:55.047Z,4.17
2019-05-07T00:24:24.842Z,4.90
2019-05-07T00:26:54.681Z,3.40
2019-05-07T00:29:24.661Z,5.13
2019-05-07T00:31:54.655Z,3.60
2019-05-07T00:34:28.863Z,5.67
2019-05-07T00:37:16.714Z,3.67
2019-05-07T00:40:07.305Z,4.07
2019-05-07T00:42:55.000Z,3.67
2019-05-07T00:45:32.621Z,4.37
2019-05-07T00:48:02.986Z,6.63
2019-05-07T00:50:34.503Z,4.47
2019-05-07T00:53:04.598Z,4.20
2019-05-07T00:55:34.655Z,4.40
2019-05-07T00:58:04.627Z,4.97
2019-05-07T01:00:34.707Z,4.37
2019-05-07T01:03:04.782Z,4.30
2019-05-07T01:05:34.760Z,5.37
2019-05-07T01:08:04.665Z,4.53
2019-05-07T01:10:34.579Z,4.03
2019-05-07T01:13:04.571Z,3.63
2019-05-07T01:15:34.844Z,4.67
2019-05-07T01:18:04.914Z,4.97
2019-05-07T01:20:34.792Z,3.83
2019-05-07T01:23:04.689Z,4.50
2019-05-07T01:25:34.593Z,3.97
2019-05-07T01:28:04.581Z,4.30
2019-05-07T01:30:34.641Z,4.93
2019-05-07T01:33:17.865Z,4.27
2019-05-07T01:36:09.974Z,3.70
2019-05-07T01:38:39.796Z,4.07
2019-05-07T01:41:09.707Z,4.33
2019-05-07T01:43:39.705Z,5.40
2019-05-07T01:46:09.606Z,4.03
2019-05-07T01:48:42.755Z,3.77
2019-05-07T01:51:12.853Z,3.57
2019-05-07T01:53:43.146Z,4.03
2019-05-07T01:56:13.135Z,5.00
2019-05-07T01:58:43.028Z,3.67
2019-05-07T02:01:13.227Z,3.80
2019-05-07T02:04:09.160Z,3.70
2019-05-07T02:06:56.753Z,6.50
2019-05-07T02:09:38.624Z,3.93
2019-05-07T02:12:22.088Z,3.70
2019-05-07T02:14:53.120Z,3.80
2019-05-07T02:17:23.067Z,4.40
2019-05-07T02:19:53.042Z,4.40
2019-05-07T02:22:23.048Z,4.13
2019-05-07T02:24:53.072Z,4.67
2019-05-07T02:27:23.037Z,4.73
2019-05-07T02:29:53.067Z,4.77
2019-05-07T02:32:24.043Z,3.70
2019-05-07T02:34:54.748Z,4.90
2019-05-07T02:37:45.194Z,3.67
2019-05-07T02:40:23.357Z,3.60
2019-05-07T02:42:54.133Z,3.73
2019-05-07T02:45:50.114Z,3.67
2019-05-07T02:48:23.728Z,3.67
2019-05-07T02:50:59.664Z,3.80
2019-05-07T02:53:44.822Z,3.50
2019-05-07T02:56:14.725Z,3.80
2019-05-07T02:58:44.627Z,3.63
2019-05-07T03:01:14.618Z,3.47
2019-05-07T03:03:45.030Z,5.03
2019-05-07T03:06:15.183Z,4.00
2019-05-07T03:08:45.435Z,4.10
2019-05-07T03:11:15.483Z,4.83
2019-05-07T03:13:45.350Z,3.60
2019-05-07T03:16:34.426Z,3.87
2019-05-07T03:18:47.848Z,3.90
2019-05-07T03:21:18.344Z,3.87
2019-05-07T03:24:10.104Z,3.70
2019-05-07T03:26:44.017Z,3.70
2019-05-07T03:29:18.589Z,4.43
2019-05-07T03:32:10.462Z,3.60
2019-05-07T03:34:58.493Z,4.00
2019-05-07T03:37:35.768Z,3.60
2019-05-07T03:40:04.020Z,3.87
2019-05-07T03:42:33.873Z,3.60
2019-05-07T03:45:23.309Z,4.00
2019-05-07T03:48:06.475Z,3.77
2019-05-07T03:50:36.329Z,4.10
2019-05-07T03:53:06.387Z,4.40
2019-05-07T03:55:36.198Z,8.30
2019-05-07T03:58:06.119Z,3.63
2019-05-07T04:00:36.218Z,4.03
2019-05-07T04:03:06.238Z,4.03
2019-05-07T04:05:36.212Z,4.47
2019-05-07T04:08:06.089Z,4.30
2019-05-07T04:10:36.069Z,7.10
2019-05-07T04:13:06.031Z,3.97
2019-05-07T04:15:36.028Z,4.43
2019-05-07T04:18:06.627Z,5.00
2019-05-07T04:20:36.632Z,3.77
2019-05-07T04:23:06.648Z,3.63
2019-05-07T04:26:04.405Z,3.87
2019-05-07T04:28:55.238Z,4.87
2019-05-07T04:31:26.812Z,3.80
2019-05-07T04:33:58.897Z,5.20
2019-05-07T04:36:34.082Z,4.13
2019-05-07T04:39:03.489Z,4.90
2019-05-07T04:41:33.931Z,6.27
2019-05-07T04:44:04.101Z,5.33
2019-05-07T04:46:34.113Z,6.60
2019-05-07T04:49:04.365Z,4.97
2019-05-07T04:51:47.170Z,4.13
2019-05-07T04:54:17.030Z,3.47
2019-05-07T04:56:46.841Z,4.77
2019-05-07T04:59:16.672Z,3.73
2019-05-07T05:01:53.300Z,3.33
2019-05-07T05:04:30.255Z,4.10
2019-05-07T05:06:54.901Z,3.47
2019-05-07T05:09:24.905Z,3.90
2019-05-07T05:11:57.518Z,3.50
2019-05-07T05:14:27.435Z,3.33
2019-05-07T05:16:58.426Z,3.10
2019-05-07T05:19:28.416Z,3.20
2019-05-07T05:22:12.793Z,2.90
2019-05-07T05:24:45.666Z,3.20
2019-05-07T05:27:15.556Z,2.83
2019-05-07T05:29:45.505Z,4.43
2019-05-07T05:32:15.333Z,3.53
2019-05-07T05:34:45.292Z,3.27
2019-05-07T05:37:17.153Z,4.03
2019-05-07T05:39:46.878Z,3.33
2019-05-07T05:42:26.934Z,3.20
2019-05-07T05:44:57.278Z,3.23
2019-05-07T05:47:28.255Z,2.70
2019-05-07T05:49:58.129Z,3.47
2019-05-07T05:52:35.587Z,3.33
2019-05-07T05:55:17.823Z,2.87
2019-05-07T05:57:55.165Z,2.90
2019-05-07T06:00:43.036Z,2.73
2019-05-07T06:03:35.837Z,3.37
2019-05-07T06:06:22.008Z,3.67
2019-05-07T06:09:08.572Z,3.30
2019-05-07T06:12:03.707Z,4.67
2019-05-07T06:15:04.629Z,4.67
2019-05-07T06:17:56.580Z,3.13
2019-05-07T06:20:49.389Z,3.00
2019-05-07T06:23:34.368Z,4.30
2019-05-07T06:26:05.303Z,9.83
2019-05-07T06:28:35.455Z,6.50
2019-05-07T06:31:05.472Z,7.70
2019-05-07T06:33:35.457Z,5.90
2019-05-07T06:36:05.508Z,7.23
2019-05-07T06:38:42.707Z,7.77
2019-05-07T06:41:23.707Z,6.90
2019-05-07T06:43:57.682Z,7.97
2019-05-07T06:46:27.742Z,7.73
2019-05-07T06:48:57.727Z,8.20
2019-05-07T06:51:27.540Z,7.07
2019-05-07T06:53:57.580Z,8.67
2019-05-07T06:56:27.489Z,6.53
2019-05-07T06:59:22.471Z,6.27
2019-05-07T07:02:22.522Z,5.40
2019-05-07T07:05:02.896Z,6.97
2019-05-07T07:07:37.741Z,5.83
2019-05-07T07:10:33.099Z,5.60
2019-05-07T07:13:04.135Z,5.73
2019-05-07T07:15:34.156Z,7.20
2019-05-07T07:18:04.139Z,6.70
2019-05-07T07:20:34.187Z,5.77
2019-05-07T07:23:05.115Z,7.60
2019-05-07T07:25:35.069Z,8.73
2019-05-07T07:28:05.136Z,5.93
2019-05-07T07:30:52.681Z,8.63
2019-05-07T07:33:24.398Z,10.20
2019-05-07T07:35:54.303Z,8.03
2019-05-07T07:38:33.459Z,6.63
2019-05-07T07:41:24.476Z,8.77
2019-05-07T07:43:54.459Z,7.57
2019-05-07T07:46:25.576Z,6.97
2019-05-07T07:49:09.877Z,9.63
2019-05-07T07:51:38.904Z,12.43
2019-05-07T07:54:02.445Z,7.27
2019-05-07T07:57:04.220Z,7.77
2019-05-07T08:00:02.642Z,7.47
2019-05-07T08:03:02.322Z,7.47
2019-05-07T08:05:32.636Z,6.87
2019-05-07T08:08:02.716Z,10.33
2019-05-07T08:10:32.739Z,5.67
2019-05-07T08:13:02.748Z,4.97
2019-05-07T08:15:33.841Z,5.80
2019-05-07T08:18:03.992Z,6.37
2019-05-07T08:20:34.030Z,6.20
2019-05-07T08:23:04.114Z,7.13
2019-05-07T08:25:49.168Z,6.13
2019-05-07T08:28:22.872Z,6.17
2019-05-07T08:31:11.905Z,6.43
2019-05-07T08:33:51.805Z,5.23
2019-05-07T08:36:22.637Z,6.53
2019-05-07T08:38:56.688Z,9.27
2019-05-07T08:41:27.990Z,6.23
2019-05-07T08:44:12.288Z,5.20
2019-05-07T08:46:56.742Z,7.70
2019-05-07T08:49:36.764Z,6.17
2019-05-07T08:52:03.534Z,7.57
2019-05-07T08:54:33.794Z,6.20
2019-05-07T08:57:04.172Z,5.40
2019-05-07T08:59:35.305Z,6.03
2019-05-07T09:02:06.898Z,6.87
2019-05-07T09:04:36.878Z,5.70
2019-05-07T09:07:07.053Z,5.97
2019-05-07T09:09:37.006Z,6.77
2019-05-07T09:12:07.013Z,7.73
2019-05-07T09:14:36.930Z,6.30
2019-05-07T09:17:06.845Z,8.10
2019-05-07T09:19:49.967Z,7.43
2019-05-07T09:22:08.541Z,11.70
2019-05-07T09:24:38.450Z,7.53
2019-05-07T09:27:35.089Z,6.73
2019-05-07T09:30:22.191Z,6.87
2019-05-07T09:32:56.133Z,6.67
2019-05-07T09:35:32.103Z,4.97
2019-05-07T09:38:03.218Z,6.30
2019-05-07T09:40:33.286Z,5.27
2019-05-07T09:43:03.218Z,7.73
2019-05-07T09:45:33.190Z,7.13
2019-05-07T09:48:03.200Z,6.40
2019-05-07T09:50:33.188Z,5.73
2019-05-07T09:53:03.213Z,4.40
2019-05-07T09:55:33.106Z,5.87
2019-05-07T09:58:03.130Z,6.83
2019-05-07T10:00:33.107Z,4.57
2019-05-07T10:03:03.095Z,7.23
2019-05-07T10:05:34.052Z,6.10
2019-05-07T10:08:04.362Z,6.00
2019-05-07T10:10:34.455Z,4.77
2019-05-07T10:13:14.557Z,7.07
2019-05-07T10:15:44.629Z,7.37
2019-05-07T10:18:16.045Z,6.70
2019-05-07T10:20:46.147Z,7.20
2019-05-07T10:23:23.000Z,5.37
2019-05-07T10:25:54.195Z,7.17
2019-05-07T10:28:24.531Z,6.03
2019-05-07T10:30:55.281Z,8.30
2019-05-07T10:33:25.397Z,5.63
2019-05-07T10:35:55.320Z,5.10
2019-05-07T10:38:25.395Z,7.17
2019-05-07T10:40:55.379Z,8.17
2019-05-07T10:43:25.387Z,5.30
2019-05-07T10:46:13.042Z,5.87
2019-05-07T10:49:14.032Z,5.70
2019-05-07T10:51:44.012Z,5.87
2019-05-07T10:54:14.117Z,6.20
2019-05-07T10:56:44.026Z,8.10
2019-05-07T10:59:13.862Z,5.80
2019-05-07T11:01:59.327Z,5.50
2019-05-07T11:04:40.307Z,5.67
2019-05-07T11:07:00.844Z,5.57
2019-05-07T11:09:32.689Z,4.80
2019-05-07T11:12:02.640Z,5.70
2019-05-07T11:14:32.649Z,4.97
2019-05-07T11:17:15.990Z,7.20
2019-05-07T11:19:45.991Z,6.47
2019-05-07T11:22:15.983Z,5.00
2019-05-07T11:24:45.904Z,4.97
2019-05-07T11:27:15.864Z,5.30
2019-05-07T11:29:45.852Z,5.57
2019-05-07T11:32:15.811Z,5.33
2019-05-07T11:34:46.979Z,5.00
2019-05-07T11:37:16.946Z,6.77
2019-05-07T11:39:46.907Z,5.17
2019-05-07T11:42:35.736Z,8.00
2019-05-07T11:45:07.722Z,6.47
2019-05-07T11:47:37.759Z,7.67
2019-05-07T11:50:33.100Z,6.67
2019-05-07T11:53:05.960Z,7.00
2019-05-07T11:55:35.925Z,5.43
2019-05-07T11:58:05.874Z,8.80
2019-05-07T12:00:44.387Z,6.20
2019-05-07T12:03:14.326Z,4.80
2019-05-07T12:05:44.280Z,8.33
2019-05-07T12:08:14.170Z,5.73
2019-05-07T12:10:44.159Z,4.83
2019-05-07T12:13:14.064Z,4.30
2019-05-07T12:15:44.037Z,5.33
2019-05-07T12:18:13.862Z,5.47
2019-05-07T12:20:43.916Z,8.47
2019-05-07T12:23:13.895Z,8.10
2019-05-07T12:25:43.912Z,8.27
2019-05-07T12:28:13.815Z,6.10
2019-05-07T12:31:01.223Z,6.03
2019-05-07T12:33:48.846Z,6.47
2019-05-07T12:36:18.743Z,4.90
2019-05-07T12:38:48.725Z,5.10
2019-05-07T12:41:33.734Z,6.87
2019-05-07T12:44:06.751Z,5.37
2019-05-07T12:46:38.234Z,6.10
2019-05-07T12:49:08.223Z,5.00
2019-05-07T12:51:48.502Z,6.83
2019-05-07T12:54:36.482Z,7.17
2019-05-07T12:57:04.854Z,5.90
2019-05-07T12:59:34.748Z,6.70
2019-05-07T13:02:38.094Z,5.90
2019-05-07T13:04:59.605Z,5.60
2019-05-07T13:07:48.735Z,5.53
2019-05-07T13:10:18.803Z,6.23
2019-05-07T13:12:48.777Z,7.50
2019-05-07T13:15:25.023Z,7.90
2019-05-07T13:17:52.060Z,6.50
2019-05-07T13:20:22.724Z,6.00
2019-05-07T13:22:52.727Z,7.37
2019-05-07T13:25:28.420Z,6.50
2019-05-07T13:27:54.506Z,7.43
2019-05-07T13:30:24.541Z,7.27
2019-05-07T13:32:55.382Z,5.63
2019-05-07T13:35:26.220Z,5.97
2019-05-07T13:38:24.879Z,5.90
2019-05-07T13:41:02.353Z,6.70
2019-05-07T13:43:37.281Z,5.40
2019-05-07T13:46:12.265Z,5.60
2019-05-07T13:48:45.474Z,5.53
2019-05-07T13:51:14.951Z,5.60
2019-05-07T13:53:45.062Z,8.43
2019-05-07T13:56:15.750Z,6.87
2019-05-07T13:58:45.769Z,6.20
2019-05-07T14:01:24.149Z,7.60
2019-05-07T14:03:54.081Z,6.83
2019-05-07T14:06:39.507Z,5.37
2019-05-07T14:09:23.941Z,7.90
2019-05-07T14:11:53.004Z,6.43
2019-05-07T14:14:23.143Z,6.47
2019-05-07T14:16:53.337Z,6.90
2019-05-07T14:19:23.392Z,7.83
2019-05-07T14:21:54.431Z,7.13
2019-05-07T14:24:24.380Z,5.37
2019-05-07T14:26:54.368Z,7.03
2019-05-07T14:29:24.949Z,7.70
2019-05-07T14:32:09.443Z,7.23
2019-05-07T14:34:57.140Z,6.90
2019-05-07T14:37:32.568Z,7.00
2019-05-07T14:40:02.824Z,7.47
2019-05-07T14:42:38.529Z,6.07
2019-05-07T14:45:09.905Z,5.90
2019-05-07T14:47:39.988Z,6.67
2019-05-07T14:50:12.205Z,7.43
2019-05-07T14:52:43.303Z,8.03
2019-05-07T14:55:13.944Z,7.47
2019-05-07T14:57:43.920Z,8.33
2019-05-07T15:00:14.138Z,8.97
2019-05-07T15:02:44.251Z,7.77
2019-05-07T15:05:14.339Z,10.13
2019-05-07T15:07:44.394Z,7.67
2019-05-07T15:10:14.588Z,9.20
2019-05-07T15:12:45.003Z,12.57
2019-05-07T15:15:15.223Z,9.70
2019-05-07T15:17:52.484Z,12.37
2019-05-07T15:20:22.739Z,10.03
2019-05-07T15:22:59.403Z,9.30
2019-05-07T15:25:29.483Z,8.40
2019-05-07T15:28:01.622Z,9.67
2019-05-07T15:30:43.391Z,8.37
2019-05-07T15:33:13.346Z,8.30
2019-05-07T15:35:43.255Z,7.83
2019-05-07T15:38:13.269Z,7.97
2019-05-07T15:40:43.245Z,7.80
2019-05-07T15:43:13.350Z,9.20
2019-05-07T15:45:43.439Z,8.20
2019-05-07T15:48:13.438Z,8.77
2019-05-07T15:50:43.352Z,8.37
2019-05-07T15:53:26.581Z,8.33
2019-05-07T15:55:56.528Z,7.43
2019-05-07T15:58:26.436Z,8.67
2019-05-07T16:00:56.432Z,7.17
2019-05-07T16:03:32.403Z,9.43
2019-05-07T16:06:03.807Z,8.70
2019-05-07T16:08:37.789Z,8.83
2019-05-07T16:11:07.685Z,6.80
2019-05-07T16:13:42.077Z,7.23
2019-05-07T16:16:11.903Z,9.77
2019-05-07T16:19:01.763Z,7.70
2019-05-07T16:21:32.475Z,8.30
2019-05-07T16:24:04.074Z,9.37
2019-05-07T16:26:34.140Z,7.73
2019-05-07T16:29:04.644Z,8.30
2019-05-07T16:31:34.821Z,8.60
2019-05-07T16:34:04.799Z,7.30
2019-05-07T16:36:34.708Z,8.23
2019-05-07T16:39:06.332Z,8.33
2019-05-07T16:41:36.395Z,8.23
2019-05-07T16:44:06.591Z,8.23
2019-05-07T16:46:36.423Z,10.00
2019-05-07T16:49:06.427Z,7.83
2019-05-07T16:51:36.426Z,9.53
2019-05-07T16:54:06.349Z,9.97
2019-05-07T16:56:38.265Z,6.57
2019-05-07T16:59:08.205Z,8.50
2019-05-07T17:01:38.068Z,9.07
2019-05-07T17:04:08.146Z,9.27
2019-05-07T17:06:37.970Z,8.03
2019-05-07T17:09:13.218Z,7.50
2019-05-07T17:11:43.709Z,8.03
2019-05-07T17:14:13.933Z,8.07
2019-05-07T17:16:43.895Z,8.93
2019-05-07T17:19:15.115Z,12.23
2019-05-07T17:21:46.105Z,6.87
2019-05-07T17:24:15.999Z,8.70
2019-05-07T17:26:45.917Z,8.00
2019-05-07T17:29:15.844Z,7.70
2019-05-07T17:31:45.834Z,7.57
2019-05-07T17:34:15.760Z,6.40
2019-05-07T17:36:52.546Z,7.37
2019-05-07T17:39:22.713Z,7.10
2019-05-07T17:41:52.519Z,7.97
2019-05-07T17:44:23.253Z,6.83
2019-05-07T17:46:53.373Z,7.03
2019-05-07T17:49:23.278Z,11.83
2019-05-07T17:51:53.285Z,10.97
2019-05-07T17:54:23.306Z,6.73
2019-05-07T17:56:53.240Z,9.30
2019-05-07T17:59:23.241Z,8.07
2019-05-07T18:02:15.081Z,8.33
2019-05-07T18:04:51.233Z,7.33
2019-05-07T18:07:18.848Z,9.13
2019-05-07T18:09:48.897Z,7.67
2019-05-07T18:12:18.831Z,8.27
2019-05-07T18:14:48.844Z,8.27
2019-05-07T18:17:42.032Z,7.67
2019-05-07T18:20:13.214Z,9.43
2019-05-07T18:22:43.270Z,6.90
2019-05-07T18:25:13.551Z,10.83
2019-05-07T18:27:43.531Z,7.70
2019-05-07T18:30:13.616Z,8.23
2019-05-07T18:32:47.475Z,10.67
2019-05-07T18:35:17.487Z,9.03
2019-05-07T18:37:53.579Z,9.00
2019-05-07T18:40:23.659Z,9.00
2019-05-07T18:42:53.671Z,9.50
2019-05-07T18:45:23.704Z,9.20
2019-05-07T18:47:53.652Z,9.13
2019-05-07T18:50:23.640Z,9.00
2019-05-07T18:52:53.617Z,11.67
2019-05-07T18:55:24.559Z,7.90
2019-05-07T18:57:54.576Z,8.97
2019-05-07T19:00:31.762Z,11.13
2019-05-07T19:03:03.455Z,7.70
2019-05-07T19:05:34.724Z,9.03
2019-05-07T19:08:08.436Z,10.37
2019-05-07T19:10:36.687Z,9.73
2019-05-07T19:13:06.624Z,8.73
2019-05-07T19:15:36.649Z,11.90
2019-05-07T19:18:06.571Z,9.13
2019-05-07T19:20:36.639Z,9.17
2019-05-07T19:23:06.675Z,10.10
2019-05-07T19:25:36.521Z,9.70
2019-05-07T19:28:06.614Z,9.53
2019-05-07T19:30:36.598Z,8.87
2019-05-07T19:33:06.717Z,10.43
2019-05-07T19:35:36.561Z,11.20
2019-05-07T19:38:06.906Z,10.30
2019-05-07T19:40:36.808Z,11.33
2019-05-07T19:43:06.892Z,10.93
2019-05-07T19:45:36.735Z,10.50
2019-05-07T19:48:06.732Z,8.60
2019-05-07T19:50:36.572Z,8.83
2019-05-07T19:53:06.657Z,8.53
2019-05-07T19:55:54.754Z,10.97
2019-05-07T19:58:24.776Z,10.80
2019-05-07T20:00:57.173Z,9.27
2019-05-07T20:03:26.691Z,9.97
2019-05-07T20:05:56.785Z,9.97
2019-05-07T20:08:26.783Z,9.73
2019-05-07T20:11:02.718Z,10.40
2019-05-07T20:13:32.710Z,7.80
2019-05-07T20:16:15.282Z,10.73
2019-05-07T20:18:46.478Z,9.53
2019-05-07T20:21:16.665Z,8.97
2019-05-07T20:23:46.682Z,8.80
2019-05-07T20:26:16.694Z,9.93
2019-05-07T20:28:46.610Z,8.60
2019-05-07T20:31:16.436Z,10.17
2019-05-07T20:33:47.699Z,9.33
2019-05-07T20:36:17.747Z,8.70
2019-05-07T20:38:47.653Z,9.80
2019-05-07T20:41:17.716Z,11.30
2019-05-07T20:43:47.704Z,9.07
2019-05-07T20:46:17.794Z,9.90
2019-05-07T20:48:47.803Z,9.17
2019-05-07T20:51:17.734Z,9.20
2019-05-07T20:54:12.996Z,13.03
2019-05-07T20:56:47.622Z,9.40
2019-05-07T20:59:17.721Z,9.73
2019-05-07T21:01:47.571Z,10.13
2019-05-07T21:04:17.401Z,10.43
2019-05-07T21:06:47.364Z,12.90
2019-05-07T21:09:17.275Z,8.27
2019-05-07T21:11:47.129Z,9.10
2019-05-07T21:14:17.026Z,11.13
2019-05-07T21:16:46.917Z,8.87
2019-05-07T21:19:16.772Z,8.53
2019-05-07T21:21:46.577Z,9.47
2019-05-07T21:24:19.484Z,9.13
2019-05-07T21:26:49.484Z,10.20
2019-05-07T21:29:19.384Z,10.13
2019-05-07T21:31:49.342Z,9.33
2019-05-07T21:34:19.183Z,9.30
2019-05-07T21:36:49.214Z,8.77
2019-05-07T21:39:19.148Z,8.43
2019-05-07T21:41:49.162Z,9.33
2019-05-07T21:44:19.197Z,9.63
2019-05-07T21:46:49.023Z,9.13
2019-05-07T21:49:18.883Z,9.43
2019-05-07T21:51:48.840Z,9.07
2019-05-07T21:54:34.360Z,8.37
2019-05-07T21:57:22.240Z,8.33
2019-05-07T22:00:12.633Z,8.57
2019-05-07T22:02:44.576Z,9.10
2019-05-07T22:05:15.911Z,8.53
2019-05-07T22:07:45.824Z,8.37
2019-05-07T22:10:16.207Z,10.43
2019-05-07T22:12:46.141Z,9.93
2019-05-07T22:15:16.202Z,10.00
2019-05-07T22:17:46.114Z,7.77
2019-05-07T22:20:16.135Z,10.00
2019-05-07T22:22:46.035Z,10.20
2019-05-07T22:25:16.067Z,12.53
2019-05-07T22:27:47.579Z,8.60
2019-05-07T22:30:24.551Z,9.67
2019-05-07T22:32:59.409Z,7.97
2019-05-07T22:35:32.519Z,8.57
2019-05-07T22:38:22.681Z,8.97
2019-05-07T22:40:52.121Z,9.40
2019-05-07T22:43:22.688Z,7.97
2019-05-07T22:45:52.669Z,7.87
2019-05-07T22:48:23.697Z,8.47
2019-05-07T22:50:53.631Z,7.90
2019-05-07T22:53:23.642Z,7.90
2019-05-07T22:55:53.496Z,10.80
2019-05-07T22:58:32.556Z,9.00
2019-05-07T23:01:07.779Z,9.20
2019-05-07T23:03:38.109Z,8.60
2019-05-07T23:06:08.061Z,10.43
2019-05-07T23:08:39.432Z,8.50
2019-05-07T23:11:09.559Z,8.00
2019-05-07T23:13:39.539Z,8.23
2019-05-07T23:16:09.585Z,9.83
2019-05-07T23:18:39.479Z,8.13
2019-05-07T23:21:09.299Z,9.67
2019-05-07T23:23:39.350Z,9.87
2019-05-07T23:26:09.195Z,8.87
2019-05-07T23:28:39.067Z,8.93
2019-05-07T23:31:08.904Z,7.83
2019-05-07T23:33:38.880Z,8.77
2019-05-07T23:36:08.820Z,8.53
2019-05-07T23:38:38.812Z,9.43
2019-05-07T23:41:24.707Z,7.70
2019-05-07T23:44:14.664Z,10.40
2019-05-07T23:46:45.194Z,9.00
2019-05-07T23:49:16.193Z,8.63
2019-05-07T23:51:46.197Z,8.43
2019-05-07T23:54:16.198Z,8.43
2019-05-07T23:56:46.139Z,7.53
2019-05-07T23:59:17.077Z,10.10
